sensor_id;sensor_type;location;lat;lon;timestamp;pressure;altitude;pressure_sealevel;temperature;humidity
4570;BME280;2297;51.442;6.996;2023-01-28T00:00:50;101490.34;;;5.29;44.45
4570;BME280;2297;51.442;6.996;2023-01-28T00:03:17;101479.88;;;5.30;44.22
4570;BME280;2297;51.442;6.996;2023-01-28T00:05:44;101478.13;;;5.31;44.34
4570;BME280;2297;51.442;6.996;2023-01-28T00:08:10;101479.06;;;5.33;44.56
4570;BME280;2297;51.442;6.996;2023-01-28T00:10:37;101476.44;;;5.33;44.21
4570;BME280;2297;51.442;6.996;2023-01-28T00:13:06;101469.44;;;5.32;44.34
4570;BME280;2297;51.442;6.996;2023-01-28T00:15:32;101479.91;;;5.32;44.51
4570;BME280;2297;51.442;6.996;2023-01-28T00:17:59;101479.84;;;5.29;44.51
4570;BME280;2297;51.442;6.996;2023-01-28T00:20:26;101476.38;;;5.30;44.58
4570;BME280;2297;51.442;6.996;2023-01-28T00:22:52;101476.38;;;5.30;44.56
4570;BME280;2297;51.442;6.996;2023-01-28T00:25:19;101479.72;;;5.23;44.48
4570;BME280;2297;51.442;6.996;2023-01-28T00:27:46;101477.94;;;5.22;44.53
4570;BME280;2297;51.442;6.996;2023-01-28T00:30:14;101486.69;;;5.21;44.59
4570;BME280;2297;51.442;6.996;2023-01-28T00:32:41;101486.59;;;5.18;44.65
4570;BME280;2297;51.442;6.996;2023-01-28T00:35:08;101487.53;;;5.20;44.78
4570;BME280;2297;51.442;6.996;2023-01-28T00:37:34;101481.56;;;5.27;44.62
4570;BME280;2297;51.442;6.996;2023-01-28T00:40:02;101493.47;;;5.12;44.40
4570;BME280;2297;51.442;6.996;2023-01-28T00:42:29;101490.84;;;5.11;44.45
4570;BME280;2297;51.442;6.996;2023-01-28T00:44:55;101485.66;;;5.14;44.34
4570;BME280;2297;51.442;6.996;2023-01-28T00:47:23;101486.56;;;5.14;44.38
4570;BME280;2297;51.442;6.996;2023-01-28T00:49:50;101487.38;;;5.12;44.30
4570;BME280;2297;51.442;6.996;2023-01-28T00:52:17;101492.63;;;5.13;44.20
4570;BME280;2297;51.442;6.996;2023-01-28T00:54:43;101493.47;;;5.12;44.10
4570;BME280;2297;51.442;6.996;2023-01-28T00:57:10;101487.34;;;5.10;44.02
4570;BME280;2297;51.442;6.996;2023-01-28T00:59:36;101484.78;;;5.13;44.11
4570;BME280;2297;51.442;6.996;2023-01-28T01:02:03;101490.00;;;5.13;44.23
4570;BME280;2297;51.442;6.996;2023-01-28T01:04:39;101491.03;;;5.22;44.01
4570;BME280;2297;51.442;6.996;2023-01-28T01:07:05;101482.28;;;5.18;44.11
4570;BME280;2297;51.442;6.996;2023-01-28T01:09:32;101491.03;;;5.20;43.98
4570;BME280;2297;51.442;6.996;2023-01-28T01:11:59;101489.19;;;5.16;44.08
4570;BME280;2297;51.442;6.996;2023-01-28T01:14:26;101487.44;;;5.15;44.25
4570;BME280;2297;51.442;6.996;2023-01-28T01:16:52;101487.34;;;5.10;44.01
4570;BME280;2297;51.442;6.996;2023-01-28T01:19:22;101489.19;;;5.16;44.00
4570;BME280;2297;51.442;6.996;2023-01-28T01:21:50;101481.31;;;5.14;44.31
4570;BME280;2297;51.442;6.996;2023-01-28T01:24:17;101484.09;;;5.22;44.33
4570;BME280;2297;51.442;6.996;2023-01-28T01:26:43;101481.50;;;5.24;44.41
4570;BME280;2297;51.442;6.996;2023-01-28T01:29:10;101477.91;;;5.19;44.23
4570;BME280;2297;51.442;6.996;2023-01-28T01:31:37;101475.22;;;5.15;44.24
4570;BME280;2297;51.442;6.996;2023-01-28T01:34:04;101482.09;;;5.09;44.35
4570;BME280;2297;51.442;6.996;2023-01-28T01:36:30;101490.84;;;5.12;44.42
4570;BME280;2297;51.442;6.996;2023-01-28T01:38:58;101490.84;;;5.12;44.23
4570;BME280;2297;51.442;6.996;2023-01-28T01:41:27;101495.19;;;5.10;44.29
4570;BME280;2297;51.442;6.996;2023-01-28T01:43:56;101493.47;;;5.12;44.17
4570;BME280;2297;51.442;6.996;2023-01-28T01:46:27;101499.59;;;5.11;44.12
4570;BME280;2297;51.442;6.996;2023-01-28T01:48:56;101496.88;;;5.08;44.13
4570;BME280;2297;51.442;6.996;2023-01-28T01:51:30;101499.50;;;5.08;44.31
4570;BME280;2297;51.442;6.996;2023-01-28T01:54:00;101502.06;;;5.05;44.37
4570;BME280;2297;51.442;6.996;2023-01-28T01:56:32;101496.78;;;5.02;44.06
4570;BME280;2297;51.442;6.996;2023-01-28T01:59:00;101508.94;;;5.00;43.87
4570;BME280;2297;51.442;6.996;2023-01-28T02:01:29;101510.72;;;5.01;44.04
4570;BME280;2297;51.442;6.996;2023-01-28T02:04:02;101508.13;;;5.03;44.10
4570;BME280;2297;51.442;6.996;2023-01-28T02:06:31;101506.34;;;5.02;44.29
4570;BME280;2297;51.442;6.996;2023-01-28T02:09:00;101514.25;;;5.03;43.80
4570;BME280;2297;51.442;6.996;2023-01-28T02:11:30;101514.25;;;5.03;43.85
4570;BME280;2297;51.442;6.996;2023-01-28T02:14:01;101514.97;;;4.96;43.95
4570;BME280;2297;51.442;6.996;2023-01-28T02:16:30;101513.13;;;4.90;43.74
4570;BME280;2297;51.442;6.996;2023-01-28T02:18:57;101513.59;;;4.72;42.94
4570;BME280;2297;51.442;6.996;2023-01-28T02:25:12;101522.28;;;4.71;42.98
4570;BME280;2297;51.442;6.996;2023-01-28T02:28:05;101519.03;;;4.45;42.73
4570;BME280;2297;51.442;6.996;2023-01-28T02:30:38;101526.28;;;4.19;43.05
4570;BME280;2297;51.442;6.996;2023-01-28T02:33:10;101531.41;;;4.15;43.22
4570;BME280;2297;51.442;6.996;2023-01-28T02:35:41;101529.88;;;4.24;43.33
4570;BME280;2297;51.442;6.996;2023-01-28T02:38:15;101525.72;;;4.30;43.45
4570;BME280;2297;51.442;6.996;2023-01-28T02:40:49;101526.81;;;4.40;43.04
4570;BME280;2297;51.442;6.996;2023-01-28T02:43:35;101531.97;;;4.37;42.79
4570;BME280;2297;51.442;6.996;2023-01-28T02:46:11;101531.09;;;4.38;42.66
4570;BME280;2297;51.442;6.996;2023-01-28T02:48:57;101535.22;;;4.28;42.46
4570;BME280;2297;51.442;6.996;2023-01-28T02:51:31;101533.50;;;4.29;42.65
4570;BME280;2297;51.442;6.996;2023-01-28T02:54:08;101536.97;;;4.28;43.01
4570;BME280;2297;51.442;6.996;2023-01-28T02:56:39;101524.06;;;4.36;42.82
4570;BME280;2297;51.442;6.996;2023-01-28T02:59:12;101528.41;;;4.35;42.61
4570;BME280;2297;51.442;6.996;2023-01-28T03:02:09;101535.50;;;4.39;42.33
4570;BME280;2297;51.442;6.996;2023-01-28T03:04:42;101527.81;;;4.45;42.50
4570;BME280;2297;51.442;6.996;2023-01-28T03:07:12;101522.63;;;4.48;42.27
4570;BME280;2297;51.442;6.996;2023-01-28T03:09:42;101526.09;;;4.47;41.57
4570;BME280;2297;51.442;6.996;2023-01-28T03:12:13;101520.00;;;4.48;41.89
4570;BME280;2297;51.442;6.996;2023-01-28T03:15:02;101526.16;;;4.49;41.84
4570;BME280;2297;51.442;6.996;2023-01-28T03:17:52;101520.97;;;4.52;41.22
4570;BME280;2297;51.442;6.996;2023-01-28T03:20:41;101523.34;;;4.41;40.93
4570;BME280;2297;51.442;6.996;2023-01-28T03:23:31;101524.94;;;4.35;41.13
4570;BME280;2297;51.442;6.996;2023-01-28T03:26:20;101518.13;;;4.41;41.63
4570;BME280;2297;51.442;6.996;2023-01-28T03:29:09;101514.56;;;4.39;41.29
4570;BME280;2297;51.442;6.996;2023-01-28T03:31:57;101511.84;;;4.35;41.15
4570;BME280;2297;51.442;6.996;2023-01-28T03:34:43;101516.19;;;4.34;41.35
4570;BME280;2297;51.442;6.996;2023-01-28T03:37:28;101517.16;;;4.38;41.24
4570;BME280;2297;51.442;6.996;2023-01-28T03:40:00;101513.50;;;4.31;40.75
4570;BME280;2297;51.442;6.996;2023-01-28T03:42:30;101514.19;;;4.24;41.13
4570;BME280;2297;51.442;6.996;2023-01-28T03:44:57;101521.13;;;4.22;41.33
4570;BME280;2297;51.442;6.996;2023-01-28T03:47:29;101522.88;;;4.21;41.04
4570;BME280;2297;51.442;6.996;2023-01-28T03:49:57;101527.81;;;4.10;41.10
4570;BME280;2297;51.442;6.996;2023-01-28T03:52:27;101520.44;;;3.94;41.55
4570;BME280;2297;51.442;6.996;2023-01-28T03:54:54;101528.31;;;3.95;41.35
4570;BME280;2297;51.442;6.996;2023-01-28T03:57:23;101526.56;;;3.96;41.60
4570;BME280;2297;51.442;6.996;2023-01-28T03:59:50;101518.00;;;4.02;41.42
4570;BME280;2297;51.442;6.996;2023-01-28T04:02:18;101529.41;;;4.05;41.48
4570;BME280;2297;51.442;6.996;2023-01-28T04:04:46;101526.19;;;4.15;41.34
4570;BME280;2297;51.442;6.996;2023-01-28T04:07:14;101531.59;;;4.22;41.37
4570;BME280;2297;51.442;6.996;2023-01-28T04:09:41;101534.28;;;4.26;41.45
4570;BME280;2297;51.442;6.996;2023-01-28T04:12:08;101532.59;;;4.27;40.95
4570;BME280;2297;51.442;6.996;2023-01-28T04:14:35;101537.63;;;4.19;41.03
4570;BME280;2297;51.442;6.996;2023-01-28T04:17:03;101547.09;;;4.15;41.33
4570;BME280;2297;51.442;6.996;2023-01-28T04:19:31;101542.03;;;4.22;41.25
4570;BME280;2297;51.442;6.996;2023-01-28T04:22:04;101543.06;;;4.28;41.17
4570;BME280;2297;51.442;6.996;2023-01-28T04:24:31;101546.75;;;4.37;41.15
4570;BME280;2297;51.442;6.996;2023-01-28T04:26:58;101551.22;;;4.41;41.14
4570;BME280;2297;51.442;6.996;2023-01-28T04:29:24;101553.03;;;4.43;40.75
4570;BME280;2297;51.442;6.996;2023-01-28T04:31:51;101551.19;;;4.39;40.45
4570;BME280;2297;51.442;6.996;2023-01-28T04:34:33;101546.91;;;4.43;40.59
4570;BME280;2297;51.442;6.996;2023-01-28T04:37:00;101554.88;;;4.47;40.76
4570;BME280;2297;51.442;6.996;2023-01-28T04:39:28;101551.34;;;4.45;40.89
4570;BME280;2297;51.442;6.996;2023-01-28T04:41:54;101557.34;;;4.41;40.87
4570;BME280;2297;51.442;6.996;2023-01-28T04:44:21;101549.56;;;4.44;40.96
4570;BME280;2297;51.442;6.996;2023-01-28T04:46:48;101543.47;;;4.44;40.59
4570;BME280;2297;51.442;6.996;2023-01-28T04:49:14;101545.13;;;4.40;40.52
4570;BME280;2297;51.442;6.996;2023-01-28T04:51:41;101544.13;;;4.35;40.77
4570;BME280;2297;51.442;6.996;2023-01-28T04:54:08;101546.00;;;4.42;40.86
4570;BME280;2297;51.442;6.996;2023-01-28T04:56:36;101546.84;;;4.40;40.90
4570;BME280;2297;51.442;6.996;2023-01-28T04:59:03;101539.84;;;4.39;40.86
4570;BME280;2297;51.442;6.996;2023-01-28T05:01:29;101540.66;;;4.36;40.82
4570;BME280;2297;51.442;6.996;2023-01-28T05:03:56;101536.25;;;4.35;40.73
4570;BME280;2297;51.442;6.996;2023-01-28T05:06:23;101533.50;;;4.29;40.79
4570;BME280;2297;51.442;6.996;2023-01-28T05:08:50;101545.06;;;4.37;40.37
4570;BME280;2297;51.442;6.996;2023-01-28T05:11:17;101534.59;;;4.37;40.65
4570;BME280;2297;51.442;6.996;2023-01-28T05:13:45;101537.19;;;4.37;40.39
4570;BME280;2297;51.442;6.996;2023-01-28T05:16:11;101540.72;;;4.39;39.91
4570;BME280;2297;51.442;6.996;2023-01-28T05:18:38;101539.03;;;4.41;39.76
4570;BME280;2297;51.442;6.996;2023-01-28T05:21:05;101531.09;;;4.38;39.81
4570;BME280;2297;51.442;6.996;2023-01-28T05:23:31;101539.69;;;4.32;39.95
4570;BME280;2297;51.442;6.996;2023-01-28T05:25:58;101535.25;;;4.30;39.88
4570;BME280;2297;51.442;6.996;2023-01-28T05:28:34;101538.50;;;4.20;39.85
4570;BME280;2297;51.442;6.996;2023-01-28T05:31:04;101548.72;;;4.10;39.76
4570;BME280;2297;51.442;6.996;2023-01-28T05:33:30;101552.19;;;4.09;40.04
4570;BME280;2297;51.442;6.996;2023-01-28T05:35:57;101547.84;;;4.10;40.50
4570;BME280;2297;51.442;6.996;2023-01-28T05:38:24;101550.44;;;4.08;39.85
4570;BME280;2297;51.442;6.996;2023-01-28T05:40:50;101548.72;;;4.10;40.02
4570;BME280;2297;51.442;6.996;2023-01-28T05:43:17;101547.03;;;4.12;39.85
4570;BME280;2297;51.442;6.996;2023-01-28T05:45:44;101555.88;;;4.18;40.33
4570;BME280;2297;51.442;6.996;2023-01-28T05:48:13;101560.84;;;4.07;39.79
4570;BME280;2297;51.442;6.996;2023-01-28T05:50:40;101560.84;;;4.07;39.86
4570;BME280;2297;51.442;6.996;2023-01-28T05:53:08;101564.16;;;4.01;39.54
4570;BME280;2297;51.442;6.996;2023-01-28T05:55:34;101558.94;;;4.01;39.93
4570;BME280;2297;51.442;6.996;2023-01-28T05:58:01;101570.31;;;4.02;39.79
4570;BME280;2297;51.442;6.996;2023-01-28T06:00:28;101576.88;;;3.87;39.62
4570;BME280;2297;51.442;6.996;2023-01-28T06:02:54;101577.44;;;3.75;39.85
4570;BME280;2297;51.442;6.996;2023-01-28T06:05:22;101584.59;;;3.82;40.30
4570;BME280;2297;51.442;6.996;2023-01-28T06:07:49;101577.75;;;3.88;40.49
4570;BME280;2297;51.442;6.996;2023-01-28T06:10:16;101570.94;;;3.93;40.04
4570;BME280;2297;51.442;6.996;2023-01-28T06:12:43;101574.63;;;4.01;40.15
4570;BME280;2297;51.442;6.996;2023-01-28T06:15:10;101568.63;;;4.05;39.88
4570;BME280;2297;51.442;6.996;2023-01-28T06:17:37;101574.88;;;4.10;39.79
4570;BME280;2297;51.442;6.996;2023-01-28T06:20:05;101579.78;;;3.98;39.61
4570;BME280;2297;51.442;6.996;2023-01-28T06:22:34;101584.75;;;3.89;39.53
4570;BME280;2297;51.442;6.996;2023-01-28T06:25:01;101581.31;;;3.90;39.21
4570;BME280;2297;51.442;6.996;2023-01-28T06:27:28;101574.38;;;3.92;39.50
4570;BME280;2297;51.442;6.996;2023-01-28T06:29:55;101580.53;;;3.94;39.50
4570;BME280;2297;51.442;6.996;2023-01-28T06:32:21;101571.13;;;4.01;39.49
4570;BME280;2297;51.442;6.996;2023-01-28T06:34:48;101577.00;;;3.92;38.76
4570;BME280;2297;51.442;6.996;2023-01-28T06:37:15;101573.84;;;3.73;38.80
4570;BME280;2297;51.442;6.996;2023-01-28T06:39:43;101572.97;;;3.73;39.15
4570;BME280;2297;51.442;6.996;2023-01-28T06:42:09;101578.34;;;3.77;39.77
4570;BME280;2297;51.442;6.996;2023-01-28T06:44:36;101583.44;;;3.73;39.72
4570;BME280;2297;51.442;6.996;2023-01-28T06:47:03;101584.44;;;3.76;39.05
4570;BME280;2297;51.442;6.996;2023-01-28T06:49:29;101586.38;;;3.84;39.14
4570;BME280;2297;51.442;6.996;2023-01-28T06:51:56;101577.69;;;3.85;39.15
4570;BME280;2297;51.442;6.996;2023-01-28T06:54:23;101572.50;;;3.86;39.38
4570;BME280;2297;51.442;6.996;2023-01-28T06:56:51;101571.72;;;3.90;39.25
4570;BME280;2297;51.442;6.996;2023-01-28T06:59:17;101567.47;;;3.94;39.33
4570;BME280;2297;51.442;6.996;2023-01-28T07:01:44;101567.31;;;3.88;39.15
4570;BME280;2297;51.442;6.996;2023-01-28T07:04:10;101565.69;;;3.93;39.13
4570;BME280;2297;51.442;6.996;2023-01-28T07:06:37;101572.63;;;3.91;39.10
4570;BME280;2297;51.442;6.996;2023-01-28T07:09:05;101581.13;;;3.84;39.42
4570;BME280;2297;51.442;6.996;2023-01-28T07:11:31;101580.47;;;3.91;39.44
4570;BME280;2297;51.442;6.996;2023-01-28T07:13:59;101580.38;;;3.88;39.26
4570;BME280;2297;51.442;6.996;2023-01-28T07:16:26;101581.22;;;3.87;39.29
4570;BME280;2297;51.442;6.996;2023-01-28T07:18:53;101596.06;;;3.88;39.42
4570;BME280;2297;51.442;6.996;2023-01-28T07:21:19;101587.41;;;3.90;39.28
4570;BME280;2297;51.442;6.996;2023-01-28T07:23:46;101586.69;;;3.96;39.01
4570;BME280;2297;51.442;6.996;2023-01-28T07:26:13;101580.63;;;3.97;39.02
4570;BME280;2297;51.442;6.996;2023-01-28T07:28:40;101577.06;;;3.93;38.91
4570;BME280;2297;51.442;6.996;2023-01-28T07:31:08;101578.00;;;3.97;39.15
4570;BME280;2297;51.442;6.996;2023-01-28T07:33:35;101579.78;;;3.98;39.07
4570;BME280;2297;51.442;6.996;2023-01-28T07:36:02;101589.31;;;3.96;38.70
4570;BME280;2297;51.442;6.996;2023-01-28T07:38:29;101589.81;;;3.82;38.71
4570;BME280;2297;51.442;6.996;2023-01-28T07:40:55;101583.09;;;3.91;38.84
4570;BME280;2297;51.442;6.996;2023-01-28T07:43:22;101591.53;;;3.80;39.27
4570;BME280;2297;51.442;6.996;2023-01-28T07:45:49;101601.88;;;3.77;39.21
4570;BME280;2297;51.442;6.996;2023-01-28T07:48:17;101585.09;;;3.71;38.80
4570;BME280;2297;51.442;6.996;2023-01-28T07:50:43;101575.56;;;3.71;38.73
4570;BME280;2297;51.442;6.996;2023-01-28T07:53:12;101580.06;;;3.75;38.96
4570;BME280;2297;51.442;6.996;2023-01-28T07:55:39;101591.41;;;3.77;38.73
4570;BME280;2297;51.442;6.996;2023-01-28T07:58:07;101601.03;;;3.78;38.87
4570;BME280;2297;51.442;6.996;2023-01-28T08:00:35;101600.19;;;3.79;39.06
4570;BME280;2297;51.442;6.996;2023-01-28T08:03:04;101600.19;;;3.79;39.17
4570;BME280;2297;51.442;6.996;2023-01-28T08:05:37;101610.81;;;3.86;38.79
4570;BME280;2297;51.442;6.996;2023-01-28T08:08:06;101610.91;;;3.89;39.19
4570;BME280;2297;51.442;6.996;2023-01-28T08:10:33;101622.31;;;3.91;39.03
4570;BME280;2297;51.442;6.996;2023-01-28T08:12:59;101630.06;;;3.89;39.17
4570;BME280;2297;51.442;6.996;2023-01-28T08:15:27;101626.31;;;3.79;39.01
4570;BME280;2297;51.442;6.996;2023-01-28T08:17:54;101626.06;;;3.72;39.29
4570;BME280;2297;51.442;6.996;2023-01-28T08:20:21;101615.88;;;3.79;39.35
4570;BME280;2297;51.442;6.996;2023-01-28T08:22:49;101623.69;;;3.78;39.08
4570;BME280;2297;51.442;6.996;2023-01-28T08:25:16;101635.13;;;3.81;39.15
4570;BME280;2297;51.442;6.996;2023-01-28T08:27:44;101628.19;;;3.84;38.93
4570;BME280;2297;51.442;6.996;2023-01-28T08:30:11;101632.00;;;3.95;38.93
4570;BME280;2297;51.442;6.996;2023-01-28T08:32:38;101632.03;;;3.96;38.82
4570;BME280;2297;51.442;6.996;2023-01-28T08:35:05;101637.22;;;3.95;38.67
4570;BME280;2297;51.442;6.996;2023-01-28T08:37:33;101643.41;;;3.98;38.77
4570;BME280;2297;51.442;6.996;2023-01-28T08:40:01;101642.72;;;4.04;38.44
4570;BME280;2297;51.442;6.996;2023-01-28T08:42:28;101649.53;;;3.99;38.24
4570;BME280;2297;51.442;6.996;2023-01-28T08:44:55;101665.97;;;3.95;38.27
4570;BME280;2297;51.442;6.996;2023-01-28T08:47:21;101666.81;;;3.94;38.62
4570;BME280;2297;51.442;6.996;2023-01-28T08:49:48;101671.03;;;3.89;38.68
4570;BME280;2297;51.442;6.996;2023-01-28T08:52:15;101680.78;;;3.96;38.47
4570;BME280;2297;51.442;6.996;2023-01-28T08:54:41;101675.69;;;3.99;38.59
4570;BME280;2297;51.442;6.996;2023-01-28T08:57:09;101686.28;;;3.75;38.26
4570;BME280;2297;51.442;6.996;2023-01-28T08:59:36;101697.25;;;3.63;38.74
4570;BME280;2297;51.442;6.996;2023-01-28T09:02:11;101698.66;;;3.52;38.84
4570;BME280;2297;51.442;6.996;2023-01-28T09:04:38;101704.75;;;3.52;39.05
4570;BME280;2297;51.442;6.996;2023-01-28T09:07:06;101701.59;;;3.62;39.16
4570;BME280;2297;51.442;6.996;2023-01-28T09:09:33;101705.53;;;3.77;39.46
4570;BME280;2297;51.442;6.996;2023-01-28T09:11:59;101699.69;;;3.86;39.09
4570;BME280;2297;51.442;6.996;2023-01-28T09:14:27;101704.06;;;3.87;38.93
4570;BME280;2297;51.442;6.996;2023-01-28T09:16:54;101711.91;;;3.87;38.84
4570;BME280;2297;51.442;6.996;2023-01-28T09:19:21;101713.88;;;3.94;38.67
4570;BME280;2297;51.442;6.996;2023-01-28T09:21:47;101709.97;;;3.79;38.40
4570;BME280;2297;51.442;6.996;2023-01-28T09:24:14;101720.81;;;3.64;38.36
4570;BME280;2297;51.442;6.996;2023-01-28T09:26:40;101720.69;;;3.61;38.48
4570;BME280;2297;51.442;6.996;2023-01-28T09:29:08;101717.50;;;3.70;38.88
4570;BME280;2297;51.442;6.996;2023-01-28T09:31:36;101707.78;;;3.66;39.28
4570;BME280;2297;51.442;6.996;2023-01-28T09:34:03;101716.66;;;3.71;38.87
4570;BME280;2297;51.442;6.996;2023-01-28T09:36:30;101719.28;;;3.71;39.08
4570;BME280;2297;51.442;6.996;2023-01-28T09:38:57;101726.16;;;3.69;38.81
4570;BME280;2297;51.442;6.996;2023-01-28T09:41:25;101727.88;;;3.67;39.07
4570;BME280;2297;51.442;6.996;2023-01-28T09:44:04;101725.41;;;3.73;38.82
4570;BME280;2297;51.442;6.996;2023-01-28T09:46:33;101732.84;;;3.59;38.31
4570;BME280;2297;51.442;6.996;2023-01-28T09:49:08;101734.78;;;3.67;38.59
4570;BME280;2297;51.442;6.996;2023-01-28T09:51:42;101730.38;;;3.64;38.67
4570;BME280;2297;51.442;6.996;2023-01-28T09:54:16;101733.34;;;3.47;38.64
4570;BME280;2297;51.442;6.996;2023-01-28T09:56:47;101722.81;;;3.44;38.93
4570;BME280;2297;51.442;6.996;2023-01-28T09:59:19;101723.94;;;3.53;38.97
4570;BME280;2297;51.442;6.996;2023-01-28T10:01:52;101722.34;;;3.58;38.74
4570;BME280;2297;51.442;6.996;2023-01-28T10:04:30;101713.84;;;3.65;38.85
4570;BME280;2297;51.442;6.996;2023-01-28T10:07:12;101727.31;;;3.77;38.74
4570;BME280;2297;51.442;6.996;2023-01-28T10:09:47;101731.34;;;3.95;38.90
4570;BME280;2297;51.442;6.996;2023-01-28T10:12:38;101726.00;;;3.92;38.01
4570;BME280;2297;51.442;6.996;2023-01-28T10:15:20;101722.88;;;4.05;37.86
4570;BME280;2297;51.442;6.996;2023-01-28T10:17:50;101729.28;;;4.15;38.01
4570;BME280;2297;51.442;6.996;2023-01-28T10:20:22;101725.38;;;4.31;38.24
4570;BME280;2297;51.442;6.996;2023-01-28T10:22:53;101711.53;;;4.35;37.73
4570;BME280;2297;51.442;6.996;2023-01-28T10:25:22;101707.28;;;4.39;38.01
4570;BME280;2297;51.442;6.996;2023-01-28T10:27:50;101702.28;;;4.48;37.11
4570;BME280;2297;51.442;6.996;2023-01-28T10:30:19;101703.22;;;4.52;37.10
4570;BME280;2297;51.442;6.996;2023-01-28T10:32:51;101699.88;;;4.56;37.36
4570;BME280;2297;51.442;6.996;2023-01-28T10:35:18;101690.34;;;4.59;37.38
4570;BME280;2297;51.442;6.996;2023-01-28T10:37:47;101688.56;;;4.58;37.45
4570;BME280;2297;51.442;6.996;2023-01-28T10:40:15;101683.56;;;4.68;37.14
4570;BME280;2297;51.442;6.996;2023-01-28T10:42:43;101689.94;;;4.77;37.23
4570;BME280;2297;51.442;6.996;2023-01-28T10:45:16;101694.44;;;4.83;37.16
4570;BME280;2297;51.442;6.996;2023-01-28T10:47:47;101712.13;;;4.92;37.07
4570;BME280;2297;51.442;6.996;2023-01-28T10:50:19;101707.88;;;4.97;36.75
4570;BME280;2297;51.442;6.996;2023-01-28T10:52:56;101716.34;;;4.87;36.95
4570;BME280;2297;51.442;6.996;2023-01-28T10:55:26;101731.13;;;4.85;37.01
4570;BME280;2297;51.442;6.996;2023-01-28T10:57:54;101724.31;;;4.91;37.34
4570;BME280;2297;51.442;6.996;2023-01-28T11:00:23;101723.25;;;4.85;36.70
4570;BME280;2297;51.442;6.996;2023-01-28T11:02:51;101727.00;;;4.93;36.71
4570;BME280;2297;51.442;6.996;2023-01-28T11:05:20;101729.41;;;4.85;37.07
4570;BME280;2297;51.442;6.996;2023-01-28T11:07:47;101730.50;;;4.95;37.10
4570;BME280;2297;51.442;6.996;2023-01-28T11:10:31;101736.59;;;4.94;36.63
4570;BME280;2297;51.442;6.996;2023-01-28T11:13:00;101733.59;;;4.78;36.60
4570;BME280;2297;51.442;6.996;2023-01-28T11:15:27;101738.59;;;4.69;36.58
4570;BME280;2297;51.442;6.996;2023-01-28T11:17:56;101748.56;;;4.51;36.75
4570;BME280;2297;51.442;6.996;2023-01-28T11:20:26;101752.28;;;4.27;36.98
4570;BME280;2297;51.442;6.996;2023-01-28T11:22:54;101754.72;;;4.21;37.17
4570;BME280;2297;51.442;6.996;2023-01-28T11:25:27;101759.06;;;3.90;37.30
4570;BME280;2297;51.442;6.996;2023-01-28T11:27:57;101746.91;;;3.92;37.37
4570;BME280;2297;51.442;6.996;2023-01-28T11:30:26;101731.97;;;3.88;37.53
4570;BME280;2297;51.442;6.996;2023-01-28T11:32:55;101735.84;;;4.01;37.95
4570;BME280;2297;51.442;6.996;2023-01-28T11:35:25;101734.47;;;4.13;37.50
4570;BME280;2297;51.442;6.996;2023-01-28T11:37:54;101732.19;;;4.26;37.40
4570;BME280;2297;51.442;6.996;2023-01-28T11:40:21;101720.22;;;4.34;37.56
4570;BME280;2297;51.442;6.996;2023-01-28T11:42:49;101713.34;;;4.38;37.59
4570;BME280;2297;51.442;6.996;2023-01-28T11:45:21;101717.81;;;4.42;37.35
4570;BME280;2297;51.442;6.996;2023-01-28T11:48:08;101717.00;;;4.44;37.23
4570;BME280;2297;51.442;6.996;2023-01-28T11:50:44;101726.03;;;4.24;37.18
4570;BME280;2297;51.442;6.996;2023-01-28T11:53:24;101714.09;;;4.34;37.22
4570;BME280;2297;51.442;6.996;2023-01-28T11:56:04;101727.41;;;4.41;37.28
4570;BME280;2297;51.442;6.996;2023-01-28T11:58:44;101715.94;;;4.38;37.72
4570;BME280;2297;51.442;6.996;2023-01-28T12:01:23;101718.69;;;4.42;37.25
4570;BME280;2297;51.442;6.996;2023-01-28T12:04:11;101713.88;;;4.26;37.28
4570;BME280;2297;51.442;6.996;2023-01-28T12:06:56;101711.28;;;4.26;37.58
4570;BME280;2297;51.442;6.996;2023-01-28T12:09:32;101705.41;;;4.35;37.79
4570;BME280;2297;51.442;6.996;2023-01-28T12:12:17;101697.34;;;4.27;37.44
4570;BME280;2297;51.442;6.996;2023-01-28T12:15:03;101689.91;;;4.42;37.45
4570;BME280;2297;51.442;6.996;2023-01-28T12:17:46;101693.72;;;4.55;36.89
4570;BME280;2297;51.442;6.996;2023-01-28T12:20:18;101675.63;;;4.63;36.77
4570;BME280;2297;51.442;6.996;2023-01-28T12:25:50;101668.31;;;4.86;36.63
4570;BME280;2297;51.442;6.996;2023-01-28T12:28:32;101666.06;;;5.00;36.56
4570;BME280;2297;51.442;6.996;2023-01-28T12:31:25;101659.88;;;4.98;35.82
4570;BME280;2297;51.442;6.996;2023-01-28T12:37:01;101653.16;;;5.47;35.50
4570;BME280;2297;51.442;6.996;2023-01-28T12:39:39;101641.81;;;5.90;34.95
4570;BME280;2297;51.442;6.996;2023-01-28T12:42:12;101627.34;;;6.10;34.54
4570;BME280;2297;51.442;6.996;2023-01-28T12:44:48;101615.63;;;6.39;34.17
4570;BME280;2297;51.442;6.996;2023-01-28T12:47:19;101604.50;;;6.54;33.83
4570;BME280;2297;51.442;6.996;2023-01-28T12:49:52;101576.34;;;6.45;33.50
4570;BME280;2297;51.442;6.996;2023-01-28T12:52:24;101582.34;;;6.36;33.46
4570;BME280;2297;51.442;6.996;2023-01-28T12:54:58;101575.09;;;6.23;33.72
4570;BME280;2297;51.442;6.996;2023-01-28T12:57:28;101570.81;;;6.28;33.77
4570;BME280;2297;51.442;6.996;2023-01-28T13:00:01;101579.63;;;6.33;33.67
4570;BME280;2297;51.442;6.996;2023-01-28T13:02:31;101584.97;;;6.36;33.55
4570;BME280;2297;51.442;6.996;2023-01-28T13:05:07;101579.88;;;6.45;33.16
4570;BME280;2297;51.442;6.996;2023-01-28T13:07:38;101588.34;;;6.32;33.26
4570;BME280;2297;51.442;6.996;2023-01-28T13:10:13;101614.31;;;6.65;32.98
4570;BME280;2297;51.442;6.996;2023-01-28T13:12:43;101611.56;;;6.58;32.96
4570;BME280;2297;51.442;6.996;2023-01-28T13:15:13;101611.38;;;6.47;33.27
4570;BME280;2297;51.442;6.996;2023-01-28T13:17:52;101620.16;;;6.51;32.95
4570;BME280;2297;51.442;6.996;2023-01-28T13:20:33;101628.03;;;6.51;33.16
4570;BME280;2297;51.442;6.996;2023-01-28T13:23:02;101614.91;;;6.51;33.64
4570;BME280;2297;51.442;6.996;2023-01-28T13:25:32;101611.44;;;6.52;33.48
4570;BME280;2297;51.442;6.996;2023-01-28T13:28:01;101607.94;;;6.51;32.90
4570;BME280;2297;51.442;6.996;2023-01-28T13:30:30;101619.13;;;6.41;33.25
4570;BME280;2297;51.442;6.996;2023-01-28T13:32:59;101623.75;;;6.05;33.73
4570;BME280;2297;51.442;6.996;2023-01-28T13:35:36;101617.78;;;6.14;33.68
4570;BME280;2297;51.442;6.996;2023-01-28T13:38:08;101618.78;;;6.21;33.57
4570;BME280;2297;51.442;6.996;2023-01-28T13:40:37;101633.69;;;6.23;33.65
4570;BME280;2297;51.442;6.996;2023-01-28T13:43:25;101630.97;;;6.19;33.03
4570;BME280;2297;51.442;6.996;2023-01-28T13:45:58;101631.38;;;5.93;33.58
4570;BME280;2297;51.442;6.996;2023-01-28T13:48:47;101624.28;;;5.87;33.98